Time,TemperatureF,DewpointF,PressureIn,WindDirection,WindDirectionDegrees,WindSpeedMPH,WindSpeedGustMPH,Humidity,HourlyPrecipIn,Conditions,Clouds,dailyrainin,SoftwareType,DateUTC
2013-06-30 00:01:00,66.3,64.5,29.67,SW,229,0.0,0.0,94,0.00,,,0.01,Wunderground v.1.15,2013-06-30 04:01:00,
2013-06-30 00:02:00,66.3,64.2,29.67,SW,229,0.0,0.0,93,0.00,,,0.01,Wunderground v.1.15,2013-06-30 04:02:00,
2013-06-30 00:04:00,66.2,64.1,29.67,SW,229,0.0,0.0,93,0.00,,,0.01,Wunderground v.1.15,2013-06-30 04:04:00,
2013-06-30 00:06:00,66.2,64.1,29.66,SW,229,0.0,0.0,93,0.00,,,0.01,Wunderground v.1.15,2013-06-30 04:06:00,
2013-06-30 00:07:00,66.2,64.1,29.66,SW,229,0.0,0.0,93,0.00,,,0.01,Wunderground v.1.15,2013-06-30 04:07:00,
2013-06-30 00:13:00,66.1,64.3,29.67,SW,229,0.0,0.0,94,0.00,,,0.01,Wunderground v.1.15,2013-06-30 04:13:00,
2013-06-30 00:18:00,66.1,64.3,29.67,SW,229,0.0,0.0,94,0.00,,,0.01,Wunderground v.1.15,2013-06-30 04:18:00,
2013-06-30 00:23:00,66.0,64.2,29.67,SW,229,0.0,0.0,94,0.00,,,0.01,Wunderground v.1.15,2013-06-30 04:23:00,
2013-06-30 00:28:00,66.0,64.2,29.67,SW,229,0.0,0.0,94,0.00,,,0.01,Wunderground v.1.15,2013-06-30 04:28:00,
2013-06-30 00:34:00,66.0,64.2,29.67,SW,229,0.0,0.0,94,0.00,,,0.01,Wunderground v.1.15,2013-06-30 04:34:00,
2013-06-30 00:40:00,65.8,64.0,29.68,SW,229,0.0,0.0,94,0.00,,,0.01,Wunderground v.1.15,2013-06-30 04:40:00,
2013-06-30 00:46:00,65.6,63.8,29.67,SW,229,0.0,0.0,94,0.00,,,0.01,Wunderground v.1.15,2013-06-30 04:46:00,
2013-06-30 00:51:00,65.4,63.6,29.68,SW,229,0.0,0.0,94,0.00,,,0.01,Wunderground v.1.15,2013-06-30 04:51:00,
2013-06-30 00:56:00,65.2,63.4,29.68,SW,229,0.0,0.0,94,0.00,,,0.01,Wunderground v.1.15,2013-06-30 04:56:00,
2013-06-30 01:02:00,65.0,63.2,29.68,SW,229,0.0,0.0,94,0.00,,,0.01,Wunderground v.1.15,2013-06-30 05:02:00,
2013-06-30 01:08:00,64.9,63.4,29.68,SW,229,0.0,0.0,95,0.00,,,0.01,Wunderground v.1.15,2013-06-30 05:08:00,
2013-06-30 01:13:00,64.8,63.3,29.68,SW,229,0.0,0.0,95,0.00,,,0.01,Wunderground v.1.15,2013-06-30 05:13:00,
2013-06-30 01:19:00,64.8,63.3,29.68,SW,229,0.0,0.0,95,0.00,,,0.01,Wunderground v.1.15,2013-06-30 05:19:00,
2013-06-30 01:25:00,64.8,63.3,29.68,SW,229,0.0,0.0,95,0.00,,,0.01,Wunderground v.1.15,2013-06-30 05:25:00,
2013-06-30 01:30:00,64.8,63.3,29.68,SW,229,0.0,0.0,95,0.00,,,0.01,Wunderground v.1.15,2013-06-30 05:30:00,
2013-06-30 01:35:00,64.7,63.2,29.68,SW,229,0.0,0.0,95,0.00,,,0.01,Wunderground v.1.15,2013-06-30 05:35:00,
2013-06-30 01:41:00,64.7,63.2,29.68,SW,229,0.0,0.0,95,0.00,,,0.01,Wunderground v.1.15,2013-06-30 05:41:00,
2013-06-30 01:46:00,64.7,63.5,29.69,SW,229,0.0,0.0,96,0.00,,,0.01,Wunderground v.1.15,2013-06-30 05:46:00,
2013-06-30 01:52:00,64.7,63.5,29.69,SW,229,0.0,0.0,96,0.00,,,0.01,Wunderground v.1.15,2013-06-30 05:52:00,
2013-06-30 01:57:00,64.7,63.5,29.69,SW,229,0.0,0.0,96,0.00,,,0.01,Wunderground v.1.15,2013-06-30 05:57:00,
2013-06-30 02:02:00,64.7,63.5,29.69,SW,229,0.0,0.0,96,0.00,,,0.01,Wunderground v.1.15,2013-06-30 06:02:00,
2013-06-30 02:07:00,64.7,63.5,29.69,SW,229,0.0,0.0,96,0.00,,,0.01,Wunderground v.1.15,2013-06-30 06:07:00,
2013-06-30 02:12:00,64.6,63.4,29.69,SW,229,0.0,0.0,96,0.00,,,0.01,Wunderground v.1.15,2013-06-30 06:12:00,
2013-06-30 02:17:00,64.5,63.3,29.69,SW,229,0.0,0.0,96,0.00,,,0.01,Wunderground v.1.15,2013-06-30 06:17:00,
2013-06-30 02:22:00,64.3,63.1,29.69,SW,229,0.0,0.0,96,0.00,,,0.01,Wunderground v.1.15,2013-06-30 06:22:00,
2013-06-30 02:27:00,64.2,63.0,29.69,SW,229,0.0,0.0,96,0.00,,,0.01,Wunderground v.1.15,2013-06-30 06:27:00,
2013-06-30 02:32:00,64.2,63.0,29.69,SW,229,0.0,0.0,96,0.00,,,0.01,Wunderground v.1.15,2013-06-30 06:32:00,
2013-06-30 02:37:00,64.1,62.9,29.70,SW,229,0.0,0.0,96,0.00,,,0.01,Wunderground v.1.15,2013-06-30 06:37:00,
2013-06-30 02:43:00,64.0,62.8,29.70,SW,229,0.0,0.0,96,0.00,,,0.01,Wunderground v.1.15,2013-06-30 06:43:00,
2013-06-30 02:48:00,63.8,62.6,29.70,SW,229,0.0,0.0,96,0.00,,,0.01,Wunderground v.1.15,2013-06-30 06:48:00,
2013-06-30 02:53:00,63.6,62.4,29.70,SW,229,0.0,0.0,96,0.00,,,0.01,Wunderground v.1.15,2013-06-30 06:53:00,
2013-06-30 02:58:00,63.5,62.3,29.70,SW,229,0.0,0.0,96,0.00,,,0.01,Wunderground v.1.15,2013-06-30 06:58:00,
2013-06-30 03:03:00,63.4,62.2,29.70,SW,229,0.0,0.0,96,0.00,,,0.01,Wunderground v.1.15,2013-06-30 07:03:00,
2013-06-30 03:08:00,63.3,62.1,29.70,SW,229,0.0,0.0,96,0.00,,,0.01,Wunderground v.1.15,2013-06-30 07:08:00,
2013-06-30 03:14:00,63.2,62.0,29.70,SW,229,0.0,0.0,96,0.00,,,0.01,Wunderground v.1.15,2013-06-30 07:14:00,
2013-06-30 03:19:00,63.1,61.9,29.70,SW,229,0.0,0.0,96,0.00,,,0.01,Wunderground v.1.15,2013-06-30 07:19:00,
2013-06-30 03:24:00,63.1,61.9,29.70,SW,229,0.0,0.0,96,0.00,,,0.01,Wunderground v.1.15,2013-06-30 07:24:00,
2013-06-30 03:29:00,63.0,61.8,29.70,SW,229,0.0,0.0,96,0.00,,,0.01,Wunderground v.1.15,2013-06-30 07:29:00,
2013-06-30 03:34:00,62.9,61.7,29.70,SW,229,0.0,0.0,96,0.00,,,0.01,Wunderground v.1.15,2013-06-30 07:34:00,
2013-06-30 03:39:00,62.8,61.6,29.70,SW,229,0.0,0.0,96,0.00,,,0.01,Wunderground v.1.15,2013-06-30 07:39:00,
2013-06-30 03:44:00,62.7,61.5,29.71,SW,229,0.0,0.0,96,0.00,,,0.01,Wunderground v.1.15,2013-06-30 07:44:00,
2013-06-30 03:49:00,62.7,61.5,29.71,SW,229,0.0,0.0,96,0.00,,,0.01,Wunderground v.1.15,2013-06-30 07:49:00,
2013-06-30 03:54:00,62.6,61.7,29.71,SW,229,0.0,0.0,97,0.00,,,0.01,Wunderground v.1.15,2013-06-30 07:54:00,
2013-06-30 04:00:00,62.5,61.6,29.70,SW,229,0.0,0.0,97,0.00,,,0.01,Wunderground v.1.15,2013-06-30 08:00:00,
2013-06-30 04:05:00,62.5,61.6,29.70,SW,229,0.0,0.0,97,0.00,,,0.01,Wunderground v.1.15,2013-06-30 08:05:00,
2013-06-30 04:10:00,62.5,61.6,29.70,SW,229,0.0,0.0,97,0.00,,,0.01,Wunderground v.1.15,2013-06-30 08:10:00,
2013-06-30 04:15:00,62.5,61.6,29.71,SW,229,0.0,0.0,97,0.00,,,0.01,Wunderground v.1.15,2013-06-30 08:15:00,
2013-06-30 04:21:00,62.5,61.6,29.71,SW,229,0.0,0.0,97,0.00,,,0.01,Wunderground v.1.15,2013-06-30 08:21:00,
2013-06-30 04:26:00,62.5,61.6,29.71,SW,229,0.0,0.0,97,0.00,,,0.01,Wunderground v.1.15,2013-06-30 08:26:00,
2013-06-30 04:31:00,62.4,61.5,29.71,SW,229,0.0,0.0,97,0.00,,,0.01,Wunderground v.1.15,2013-06-30 08:31:00,
2013-06-30 04:36:00,62.5,61.6,29.71,SW,229,0.0,0.0,97,0.00,,,0.01,Wunderground v.1.15,2013-06-30 08:36:00,
2013-06-30 04:41:00,62.5,61.6,29.71,SW,229,0.0,0.0,97,0.00,,,0.01,Wunderground v.1.15,2013-06-30 08:41:00,
2013-06-30 04:46:00,62.5,61.6,29.72,SW,229,0.0,0.0,97,0.00,,,0.01,Wunderground v.1.15,2013-06-30 08:46:00,
2013-06-30 04:52:00,62.4,61.5,29.71,SW,229,0.0,0.0,97,0.00,,,0.01,Wunderground v.1.15,2013-06-30 08:52:00,
2013-06-30 04:57:00,62.4,61.5,29.72,SW,229,0.0,0.0,97,0.00,,,0.01,Wunderground v.1.15,2013-06-30 08:57:00,
2013-06-30 05:02:00,62.3,61.4,29.72,SW,229,0.0,0.0,97,0.00,,,0.01,Wunderground v.1.15,2013-06-30 09:02:00,
2013-06-30 05:07:00,62.2,61.3,29.72,SW,229,0.0,0.0,97,0.00,,,0.01,Wunderground v.1.15,2013-06-30 09:07:00,
2013-06-30 05:12:00,62.0,61.1,29.73,SW,229,0.0,0.0,97,0.00,,,0.01,Wunderground v.1.15,2013-06-30 09:12:00,
2013-06-30 05:17:00,62.0,61.1,29.73,SW,229,0.0,0.0,97,0.00,,,0.01,Wunderground v.1.15,2013-06-30 09:17:00,
2013-06-30 05:22:00,61.9,61.0,29.73,SW,229,0.0,0.0,97,0.00,,,0.01,Wunderground v.1.15,2013-06-30 09:22:00,
2013-06-30 05:28:00,61.8,60.9,29.73,SW,229,0.0,0.0,97,0.00,,,0.01,Wunderground v.1.15,2013-06-30 09:28:00,
2013-06-30 05:33:00,61.9,61.0,29.73,SW,229,0.0,0.0,97,0.00,,,0.01,Wunderground v.1.15,2013-06-30 09:33:00,
2013-06-30 05:38:00,61.9,61.0,29.74,SW,229,0.0,0.0,97,0.00,,,0.01,Wunderground v.1.15,2013-06-30 09:38:00,
2013-06-30 05:43:00,62.0,61.1,29.74,SW,229,0.0,0.0,97,0.00,,,0.01,Wunderground v.1.15,2013-06-30 09:43:00,
2013-06-30 05:48:00,62.0,61.4,29.74,SW,229,0.0,0.0,98,0.00,,,0.01,Wunderground v.1.15,2013-06-30 09:48:00,
2013-06-30 05:53:00,62.2,61.6,29.74,SW,229,0.0,0.0,98,0.00,,,0.01,Wunderground v.1.15,2013-06-30 09:53:00,
2013-06-30 05:58:00,62.3,61.7,29.74,SW,229,0.0,0.0,98,0.00,,,0.01,Wunderground v.1.15,2013-06-30 09:58:00,
2013-06-30 06:04:00,62.5,61.9,29.75,SW,229,0.0,0.0,98,0.00,,,0.01,Wunderground v.1.15,2013-06-30 10:04:00,
2013-06-30 06:09:00,62.6,62.0,29.75,SW,229,0.0,0.0,98,0.00,,,0.01,Wunderground v.1.15,2013-06-30 10:09:00,
2013-06-30 06:14:00,62.8,62.2,29.75,SW,229,0.0,0.0,98,0.00,,,0.01,Wunderground v.1.15,2013-06-30 10:14:00,
2013-06-30 06:19:00,62.9,62.3,29.75,SW,229,0.0,0.0,98,0.00,,,0.01,Wunderground v.1.15,2013-06-30 10:19:00,
2013-06-30 06:25:00,63.1,62.5,29.75,SW,229,0.0,0.0,98,0.00,,,0.01,Wunderground v.1.15,2013-06-30 10:25:00,
2013-06-30 06:30:00,63.2,62.6,29.75,SW,229,0.0,0.0,98,0.00,,,0.01,Wunderground v.1.15,2013-06-30 10:30:00,
2013-06-30 06:35:00,63.4,62.8,29.75,SW,229,0.0,0.0,98,0.00,,,0.01,Wunderground v.1.15,2013-06-30 10:35:00,
2013-06-30 06:40:00,63.5,62.9,29.75,SW,229,0.0,0.0,98,0.00,,,0.01,Wunderground v.1.15,2013-06-30 10:40:00,
2013-06-30 06:45:00,63.6,63.0,29.75,SW,229,0.0,0.0,98,0.00,,,0.01,Wunderground v.1.15,2013-06-30 10:45:00,
2013-06-30 06:50:00,63.7,63.1,29.75,SW,229,0.0,0.0,98,0.00,,,0.01,Wunderground v.1.15,2013-06-30 10:50:00,
2013-06-30 06:55:00,64.1,63.5,29.75,SW,229,0.0,0.0,98,0.00,,,0.01,Wunderground v.1.15,2013-06-30 10:55:00,
2013-06-30 07:00:00,64.5,63.9,29.75,SW,229,0.0,0.0,98,0.00,,,0.01,Wunderground v.1.15,2013-06-30 11:00:00,
2013-06-30 07:06:00,64.8,64.2,29.76,SW,229,0.0,0.0,98,0.00,,,0.01,Wunderground v.1.15,2013-06-30 11:06:00,
2013-06-30 07:11:00,65.1,64.5,29.76,SW,229,0.0,0.0,98,0.00,,,0.01,Wunderground v.1.15,2013-06-30 11:11:00,
2013-06-30 07:16:00,65.5,64.9,29.76,SW,229,0.0,0.0,98,0.00,,,0.01,Wunderground v.1.15,2013-06-30 11:16:00,
2013-06-30 07:21:00,65.8,65.2,29.77,SW,229,0.0,0.0,98,0.00,,,0.01,Wunderground v.1.15,2013-06-30 11:21:00,
2013-06-30 07:26:00,66.1,65.5,29.77,SW,229,0.0,0.0,98,0.00,,,0.01,Wunderground v.1.15,2013-06-30 11:26:00,
2013-06-30 07:31:00,66.3,65.7,29.77,SW,229,0.0,0.0,98,0.00,,,0.01,Wunderground v.1.15,2013-06-30 11:31:00,
2013-06-30 07:36:00,66.4,65.8,29.77,SW,229,0.0,1.0,98,0.00,,,0.01,Wunderground v.1.15,2013-06-30 11:36:00,
2013-06-30 07:41:00,66.7,66.1,29.77,SW,229,0.0,0.0,98,0.00,,,0.01,Wunderground v.1.15,2013-06-30 11:41:00,
2013-06-30 07:46:00,66.9,66.3,29.77,SW,229,0.0,0.0,98,0.00,,,0.01,Wunderground v.1.15,2013-06-30 11:46:00,
2013-06-30 07:52:00,67.0,66.4,29.78,SW,229,0.0,0.0,98,0.00,,,0.01,Wunderground v.1.15,2013-06-30 11:52:00,
2013-06-30 07:57:00,67.2,66.6,29.78,SW,228,0.0,2.0,98,0.00,,,0.01,Wunderground v.1.15,2013-06-30 11:57:00,
2013-06-30 08:02:00,67.1,66.5,29.78,West,276,0.0,4.0,98,0.00,,,0.01,Wunderground v.1.15,2013-06-30 12:02:00,
2013-06-30 08:07:00,67.2,66.6,29.78,South,171,0.0,4.0,98,0.00,,,0.01,Wunderground v.1.15,2013-06-30 12:07:00,
2013-06-30 08:12:00,67.4,66.5,29.78,WSW,247,1.0,3.0,97,0.00,,,0.01,Wunderground v.1.15,2013-06-30 12:12:00,
2013-06-30 08:17:00,67.6,66.4,29.78,WSW,248,0.0,3.0,96,0.00,,,0.01,Wunderground v.1.15,2013-06-30 12:17:00,
2013-06-30 08:22:00,67.9,66.4,29.79,WSW,248,0.0,2.0,95,0.00,,,0.01,Wunderground v.1.15,2013-06-30 12:22:00,
2013-06-30 08:28:00,68.2,66.7,29.79,WSW,248,1.0,2.0,95,0.00,,,0.01,Wunderground v.1.15,2013-06-30 12:28:00,
2013-06-30 08:33:00,68.6,66.5,29.79,WSW,248,0.0,1.0,93,0.00,,,0.01,Wunderground v.1.15,2013-06-30 12:33:00,
2013-06-30 08:38:00,68.9,66.2,29.79,SSW,198,0.0,2.0,91,0.00,,,0.01,Wunderground v.1.15,2013-06-30 12:38:00,
2013-06-30 08:43:00,69.3,66.2,29.79,SSW,198,1.0,1.0,90,0.00,,,0.01,Wunderground v.1.15,2013-06-30 12:43:00,
2013-06-30 08:48:00,69.7,66.0,29.79,South,175,1.0,3.0,88,0.00,,,0.01,Wunderground v.1.15,2013-06-30 12:48:00,
2013-06-30 08:53:00,70.2,66.1,29.79,SSW,196,2.0,3.0,87,0.00,,,0.01,Wunderground v.1.15,2013-06-30 12:53:00,
2013-06-30 08:58:00,70.7,66.3,29.79,SE,126,2.0,3.0,86,0.00,,,0.01,Wunderground v.1.15,2013-06-30 12:58:00,
2013-06-30 09:03:00,71.1,66.7,29.80,SE,132,0.0,2.0,86,0.00,,,0.01,Wunderground v.1.15,2013-06-30 13:03:00,
2013-06-30 09:09:00,71.6,66.8,29.80,ESE,123,2.0,2.0,85,0.00,,,0.01,Wunderground v.1.15,2013-06-30 13:09:00,
2013-06-30 09:14:00,72.0,65.8,29.79,ESE,123,1.0,5.0,81,0.00,,,0.01,Wunderground v.1.15,2013-06-30 13:14:00,
2013-06-30 09:19:00,72.3,66.1,29.80,NE,48,0.0,5.0,81,0.00,,,0.01,Wunderground v.1.15,2013-06-30 13:19:00,
2013-06-30 09:24:00,72.7,65.8,29.79,WNW,291,2.0,3.0,79,0.00,,,0.01,Wunderground v.1.15,2013-06-30 13:24:00,
2013-06-30 09:29:00,73.1,66.9,29.79,WSW,252,1.0,5.0,81,0.00,,,0.01,Wunderground v.1.15,2013-06-30 13:29:00,
2013-06-30 09:34:00,73.4,66.1,29.79,SSW,207,0.0,3.0,78,0.00,,,0.01,Wunderground v.1.15,2013-06-30 13:34:00,
2013-06-30 09:39:00,73.7,66.4,29.79,SSW,193,2.0,3.0,78,0.00,,,0.01,Wunderground v.1.15,2013-06-30 13:39:00,
2013-06-30 09:44:00,74.1,66.8,29.79,SSE,149,1.0,2.0,78,0.00,,,0.01,Wunderground v.1.15,2013-06-30 13:44:00,
2013-06-30 09:49:00,74.4,66.7,29.79,ESE,121,2.0,4.0,77,0.00,,,0.01,Wunderground v.1.15,2013-06-30 13:49:00,
2013-06-30 09:55:00,74.8,66.3,29.79,NNE,20,1.0,4.0,75,0.00,,,0.01,Wunderground v.1.15,2013-06-30 13:55:00,
2013-06-30 10:00:00,75.1,66.6,29.79,WNW,284,2.0,2.0,75,0.00,,,0.01,Wunderground v.1.15,2013-06-30 14:00:00,
2013-06-30 10:05:00,75.3,67.2,29.79,West,259,0.0,4.0,76,0.00,,,0.01,Wunderground v.1.15,2013-06-30 14:05:00,
2013-06-30 10:10:00,75.4,66.9,29.79,West,263,0.0,2.0,75,0.00,,,0.01,Wunderground v.1.15,2013-06-30 14:10:00,
2013-06-30 10:15:00,75.8,67.3,29.79,WSW,248,2.0,3.0,75,0.00,,,0.01,Wunderground v.1.15,2013-06-30 14:15:00,
2013-06-30 10:21:00,76.4,68.3,29.79,WNW,284,1.0,2.0,76,0.00,,,0.01,Wunderground v.1.15,2013-06-30 14:21:00,
2013-06-30 10:26:00,76.8,67.1,29.79,NW,325,2.0,4.0,72,0.00,,,0.01,Wunderground v.1.15,2013-06-30 14:26:00,
2013-06-30 10:31:00,77.2,67.9,29.79,SSE,166,0.0,3.0,73,0.00,,,0.01,Wunderground v.1.15,2013-06-30 14:31:00,
2013-06-30 10:36:00,77.4,67.7,29.80,ENE,58,1.0,3.0,72,0.00,,,0.01,Wunderground v.1.15,2013-06-30 14:36:00,
2013-06-30 10:41:00,77.3,68.0,29.79,NW,325,1.0,3.0,73,0.00,,,0.01,Wunderground v.1.15,2013-06-30 14:41:00,
2013-06-30 10:46:00,77.3,68.4,29.79,South,188,2.0,4.0,74,0.00,,,0.01,Wunderground v.1.15,2013-06-30 14:46:00,
2013-06-30 10:51:00,77.5,68.6,29.79,East,95,3.0,3.0,74,0.00,,,0.01,Wunderground v.1.15,2013-06-30 14:51:00,
2013-06-30 10:57:00,77.9,68.5,29.79,West,268,0.0,4.0,73,0.00,,,0.01,Wunderground v.1.15,2013-06-30 14:57:00,
2013-06-30 11:02:00,78.4,68.2,29.79,SE,140,3.0,3.0,71,0.00,,,0.01,Wunderground v.1.15,2013-06-30 15:02:00,
2013-06-30 11:07:00,78.6,68.4,29.79,ESE,105,0.0,3.0,71,0.00,,,0.01,Wunderground v.1.15,2013-06-30 15:07:00,
2013-06-30 11:12:00,78.9,68.7,29.79,West,259,2.0,3.0,71,0.00,,,0.01,Wunderground v.1.15,2013-06-30 15:12:00,
2013-06-30 11:18:00,78.9,67.9,29.79,SE,144,0.0,3.0,69,0.00,,,0.01,Wunderground v.1.15,2013-06-30 15:18:00,
2013-06-30 11:23:00,79.1,68.9,29.79,SSW,212,0.0,3.0,71,0.00,,,0.01,Wunderground v.1.15,2013-06-30 15:23:00,
2013-06-30 11:28:00,79.3,68.2,29.79,SW,236,1.0,6.0,69,0.00,,,0.01,Wunderground v.1.15,2013-06-30 15:28:00,
2013-06-30 11:33:00,79.3,68.7,29.79,WSW,245,3.0,3.0,70,0.00,,,0.01,Wunderground v.1.15,2013-06-30 15:33:00,
2013-06-30 11:38:00,79.3,69.1,29.79,NNE,13,3.0,4.0,71,0.00,,,0.01,Wunderground v.1.15,2013-06-30 15:38:00,
2013-06-30 11:43:00,79.4,69.6,29.80,NW,317,0.0,2.0,72,0.00,,,0.01,Wunderground v.1.15,2013-06-30 15:43:00,
2013-06-30 11:48:00,79.6,69.0,29.80,WNW,295,0.0,3.0,70,0.00,,,0.01,Wunderground v.1.15,2013-06-30 15:48:00,
2013-06-30 11:53:00,79.8,69.6,29.79,SSW,194,0.0,3.0,71,0.00,,,0.01,Wunderground v.1.15,2013-06-30 15:53:00,
2013-06-30 11:58:00,80.0,68.5,29.79,SW,222,0.0,3.0,68,0.00,,,0.01,Wunderground v.1.15,2013-06-30 15:58:00,
2013-06-30 12:04:00,80.1,69.0,29.79,ENE,70,0.0,4.0,69,0.00,,,0.01,Wunderground v.1.15,2013-06-30 16:04:00,
2013-06-30 12:09:00,79.8,68.7,29.79,West,278,3.0,4.0,69,0.00,,,0.01,Wunderground v.1.15,2013-06-30 16:09:00,
2013-06-30 12:14:00,79.8,69.1,29.80,SSW,192,3.0,4.0,70,0.00,,,0.01,Wunderground v.1.15,2013-06-30 16:14:00,
2013-06-30 12:19:00,79.9,69.7,29.79,WSW,252,2.0,4.0,71,0.00,,,0.01,Wunderground v.1.15,2013-06-30 16:19:00,
2013-06-30 12:24:00,80.0,68.9,29.79,NW,304,1.0,5.0,69,0.00,,,0.01,Wunderground v.1.15,2013-06-30 16:24:00,
2013-06-30 12:30:00,80.0,68.5,29.80,ESE,106,1.0,2.0,68,0.00,,,0.01,Wunderground v.1.15,2013-06-30 16:30:00,
2013-06-30 12:35:00,80.2,69.9,29.79,ENE,67,2.0,2.0,71,0.00,,,0.01,Wunderground v.1.15,2013-06-30 16:35:00,
2013-06-30 12:40:00,80.5,69.4,29.79,SW,232,2.0,2.0,69,0.00,,,0.01,Wunderground v.1.15,2013-06-30 16:40:00,
2013-06-30 12:45:00,80.6,69.5,29.80,WNW,291,1.0,8.0,69,0.00,,,0.01,Wunderground v.1.15,2013-06-30 16:45:00,
2013-06-30 12:50:00,80.6,69.1,29.79,WNW,294,0.0,3.0,68,0.00,,,0.01,Wunderground v.1.15,2013-06-30 16:50:00,
2013-06-30 12:55:00,80.3,69.2,29.79,West,279,2.0,4.0,69,0.00,,,0.01,Wunderground v.1.15,2013-06-30 16:55:00,
2013-06-30 13:00:00,80.5,69.4,29.79,West,271,1.0,3.0,69,0.00,,,0.01,Wunderground v.1.15,2013-06-30 17:00:00,
2013-06-30 13:06:00,80.6,70.3,29.79,WSW,257,2.0,6.0,71,0.00,,,0.01,Wunderground v.1.15,2013-06-30 17:06:00,
2013-06-30 13:11:00,80.6,69.1,29.79,WNW,300,1.0,4.0,68,0.00,,,0.01,Wunderground v.1.15,2013-06-30 17:11:00,
2013-06-30 13:16:00,80.5,69.0,29.78,South,169,1.0,4.0,68,0.00,,,0.01,Wunderground v.1.15,2013-06-30 17:16:00,
2013-06-30 13:21:00,80.5,70.2,29.78,WNW,289,1.0,2.0,71,0.00,,,0.01,Wunderground v.1.15,2013-06-30 17:21:00,
2013-06-30 13:26:00,80.6,69.9,29.78,West,259,0.0,2.0,70,0.00,,,0.01,Wunderground v.1.15,2013-06-30 17:26:00,
2013-06-30 13:31:00,81.1,70.0,29.78,SE,146,2.0,3.0,69,0.00,,,0.01,Wunderground v.1.15,2013-06-30 17:31:00,
2013-06-30 13:36:00,81.4,69.4,29.78,South,170,2.0,6.0,67,0.00,,,0.01,Wunderground v.1.15,2013-06-30 17:36:00,
2013-06-30 13:42:00,81.6,70.4,29.78,WSW,249,2.0,2.0,69,0.00,,,0.01,Wunderground v.1.15,2013-06-30 17:42:00,
2013-06-30 13:47:00,81.7,70.5,29.78,NW,309,0.0,3.0,69,0.00,,,0.01,Wunderground v.1.15,2013-06-30 17:47:00,
2013-06-30 13:52:00,82.1,70.9,29.78,SE,132,0.0,5.0,69,0.00,,,0.01,Wunderground v.1.15,2013-06-30 17:52:00,
2013-06-30 13:57:00,82.3,70.2,29.78,West,259,0.0,5.0,67,0.00,,,0.01,Wunderground v.1.15,2013-06-30 17:57:00,
2013-06-30 14:02:00,82.0,70.0,29.78,South,180,0.0,4.0,67,0.00,,,0.01,Wunderground v.1.15,2013-06-30 18:02:00,
2013-06-30 14:07:00,81.9,69.4,29.79,WSW,243,1.0,4.0,66,0.00,,,0.01,Wunderground v.1.15,2013-06-30 18:07:00,
2013-06-30 14:12:00,82.2,71.4,29.79,WSW,238,0.0,2.0,70,0.00,,,0.01,Wunderground v.1.15,2013-06-30 18:12:00,
2013-06-30 14:17:00,82.5,70.0,29.79,SSW,192,0.0,4.0,66,0.00,,,0.01,Wunderground v.1.15,2013-06-30 18:17:00,
2013-06-30 14:22:00,82.5,71.3,29.78,SSW,192,0.0,1.0,69,0.00,,,0.01,Wunderground v.1.15,2013-06-30 18:22:00,
2013-06-30 14:27:00,82.2,69.3,29.78,SW,224,0.0,2.0,65,0.00,,,0.01,Wunderground v.1.15,2013-06-30 18:27:00,
2013-06-30 14:32:00,82.0,69.5,29.79,SW,216,2.0,3.0,66,0.00,,,0.01,Wunderground v.1.15,2013-06-30 18:32:00,
2013-06-30 14:38:00,82.1,70.5,29.78,SW,231,0.0,3.0,68,0.00,,,0.01,Wunderground v.1.15,2013-06-30 18:38:00,
2013-06-30 14:43:00,82.3,69.4,29.78,WSW,239,0.0,4.0,65,0.00,,,0.00,Wunderground v.1.15,2013-06-30 18:43:00,
2013-06-30 14:48:00,82.4,71.2,29.79,WNW,290,1.0,4.0,69,0.00,,,0.00,Wunderground v.1.15,2013-06-30 18:48:00,
2013-06-30 14:53:00,82.4,71.6,29.78,SSE,165,0.0,2.0,70,0.00,,,0.00,Wunderground v.1.15,2013-06-30 18:53:00,
2013-06-30 14:58:00,82.7,69.3,29.78,NW,309,1.0,4.0,64,0.00,,,0.00,Wunderground v.1.15,2013-06-30 18:58:00,
2013-06-30 15:03:00,82.7,70.2,29.78,West,267,2.0,2.0,66,0.00,,,0.00,Wunderground v.1.15,2013-06-30 19:03:00,
2013-06-30 15:08:00,82.5,70.4,29.78,SSE,157,0.0,2.0,67,0.00,,,0.00,Wunderground v.1.15,2013-06-30 19:08:00,
2013-06-30 15:13:00,82.0,70.0,29.78,WSW,256,0.0,3.0,67,0.00,,,0.00,Wunderground v.1.15,2013-06-30 19:13:00,
2013-06-30 15:18:00,81.8,71.1,29.78,WSW,256,0.0,3.0,70,0.00,,,0.00,Wunderground v.1.15,2013-06-30 19:18:00,
2013-06-30 15:23:00,81.3,70.6,29.78,WSW,256,0.0,0.0,70,0.00,,,0.00,Wunderground v.1.15,2013-06-30 19:23:00,
2013-06-30 15:29:00,80.7,72.0,29.78,WSW,256,0.0,0.0,75,0.00,,,0.00,Wunderground v.1.15,2013-06-30 19:29:00,
2013-06-30 15:34:00,79.6,71.0,29.79,WNW,295,2.0,3.0,75,0.00,,,0.00,Wunderground v.1.15,2013-06-30 19:34:00,
2013-06-30 15:39:00,78.5,69.9,29.79,SW,224,0.0,4.0,75,0.00,,,0.00,Wunderground v.1.15,2013-06-30 19:39:00,
2013-06-30 15:44:00,77.6,70.6,29.80,SW,222,1.0,2.0,79,0.00,,,0.00,Wunderground v.1.15,2013-06-30 19:44:00,
2013-06-30 15:49:00,76.6,71.0,29.79,SW,222,0.0,2.0,83,0.00,,,0.00,Wunderground v.1.15,2013-06-30 19:49:00,
2013-06-30 15:54:00,75.6,70.8,29.80,SW,223,0.0,0.0,85,0.00,,,0.00,Wunderground v.1.15,2013-06-30 19:54:00,
2013-06-30 15:59:00,74.2,68.0,29.80,ENE,71,1.0,4.0,81,0.00,,,0.00,Wunderground v.1.15,2013-06-30 19:59:00,
2013-06-30 16:04:00,73.3,68.5,29.80,ENE,71,0.0,1.0,85,0.00,,,0.00,Wunderground v.1.15,2013-06-30 20:04:00,
2013-06-30 16:10:00,72.7,68.9,29.81,ENE,71,0.0,0.0,88,0.00,,,0.00,Wunderground v.1.15,2013-06-30 20:10:00,
2013-06-30 16:15:00,72.3,69.2,29.81,ENE,71,0.0,0.0,90,0.00,,,0.00,Wunderground v.1.15,2013-06-30 20:15:00,
2013-06-30 16:20:00,72.0,69.2,29.81,ENE,71,0.0,0.0,91,0.00,,,0.00,Wunderground v.1.15,2013-06-30 20:20:00,
2013-06-30 16:25:00,71.7,69.3,29.81,ENE,71,0.0,0.0,92,0.00,,,0.00,Wunderground v.1.15,2013-06-30 20:25:00,
2013-06-30 16:30:00,71.6,69.2,29.81,East,86,0.0,0.0,92,0.00,,,0.00,Wunderground v.1.15,2013-06-30 20:30:00,
2013-06-30 16:35:00,71.6,69.5,29.80,ENE,65,0.0,0.0,93,0.00,,,0.00,Wunderground v.1.15,2013-06-30 20:35:00,
2013-06-30 16:41:00,71.7,69.9,29.81,ENE,65,0.0,0.0,94,0.00,,,0.00,Wunderground v.1.15,2013-06-30 20:41:00,
2013-06-30 16:46:00,71.7,69.9,29.81,SW,235,0.0,2.0,94,0.00,,,0.00,Wunderground v.1.15,2013-06-30 20:46:00,
2013-06-30 16:51:00,71.9,70.1,29.81,SW,235,0.0,0.0,94,0.00,,,0.00,Wunderground v.1.15,2013-06-30 20:51:00,
2013-06-30 16:56:00,72.0,70.2,29.81,SW,235,0.0,1.0,94,0.00,,,0.00,Wunderground v.1.15,2013-06-30 20:56:00,
2013-06-30 17:01:00,71.9,69.8,29.82,WSW,252,0.0,1.0,93,0.00,,,0.01,Wunderground v.1.15,2013-06-30 21:01:00,
2013-06-30 17:06:00,71.9,70.1,29.82,WSW,252,0.0,1.0,94,0.00,,,0.01,Wunderground v.1.15,2013-06-30 21:06:00,
2013-06-30 17:12:00,71.9,69.8,29.82,WSW,252,0.0,0.0,93,0.00,,,0.01,Wunderground v.1.15,2013-06-30 21:12:00,
2013-06-30 17:17:00,71.8,69.7,29.82,WSW,252,0.0,1.0,93,0.00,,,0.01,Wunderground v.1.15,2013-06-30 21:17:00,
2013-06-30 17:22:00,71.8,69.7,29.82,West,263,0.0,1.0,93,0.00,,,0.01,Wunderground v.1.15,2013-06-30 21:22:00,
2013-06-30 17:27:00,71.9,70.1,29.82,West,263,0.0,1.0,94,0.00,,,0.01,Wunderground v.1.15,2013-06-30 21:27:00,
2013-06-30 17:32:00,71.9,70.1,29.82,West,263,0.0,0.0,94,0.00,,,0.01,Wunderground v.1.15,2013-06-30 21:32:00,
2013-06-30 17:38:00,71.9,70.1,29.82,West,263,0.0,1.0,94,0.00,,,0.01,Wunderground v.1.15,2013-06-30 21:38:00,
2013-06-30 17:43:00,71.8,70.0,29.83,West,263,0.0,0.0,94,0.00,,,0.01,Wunderground v.1.15,2013-06-30 21:43:00,
2013-06-30 17:48:00,71.8,70.0,29.83,NW,310,2.0,2.0,94,0.00,,,0.01,Wunderground v.1.15,2013-06-30 21:48:00,
2013-06-30 17:53:00,71.6,69.8,29.83,SSW,203,2.0,2.0,94,0.00,,,0.01,Wunderground v.1.15,2013-06-30 21:53:00,
2013-06-30 17:58:00,71.4,69.6,29.82,SE,125,1.0,3.0,94,0.00,,,0.01,Wunderground v.1.15,2013-06-30 21:58:00,
2013-06-30 18:03:00,71.3,69.5,29.83,SSW,208,0.0,1.0,94,0.00,,,0.01,Wunderground v.1.15,2013-06-30 22:03:00,
2013-06-30 18:08:00,71.2,69.7,29.82,SSW,208,0.0,1.0,95,0.00,,,0.01,Wunderground v.1.15,2013-06-30 22:08:00,
2013-06-30 18:13:00,71.2,69.7,29.82,NNW,327,0.0,5.0,95,0.00,,,0.01,Wunderground v.1.15,2013-06-30 22:13:00,
2013-06-30 18:18:00,70.8,69.0,29.82,SE,136,2.0,5.0,94,0.00,,,0.01,Wunderground v.1.15,2013-06-30 22:18:00,
2013-06-30 18:23:00,70.3,67.9,29.81,SE,146,1.0,4.0,92,0.00,,,0.01,Wunderground v.1.15,2013-06-30 22:23:00,
2013-06-30 18:28:00,69.8,67.4,29.82,ESE,122,2.0,5.0,92,0.00,,,0.01,Wunderground v.1.15,2013-06-30 22:28:00,
2013-06-30 18:34:00,69.5,67.1,29.82,ESE,114,2.0,3.0,92,0.00,,,0.01,Wunderground v.1.15,2013-06-30 22:34:00,
2013-06-30 18:39:00,69.1,66.7,29.82,ENE,67,0.0,5.0,92,0.00,,,0.01,Wunderground v.1.15,2013-06-30 22:39:00,
2013-06-30 18:44:00,68.9,66.2,29.82,WSW,252,0.0,4.0,91,0.00,,,0.01,Wunderground v.1.15,2013-06-30 22:44:00,
2013-06-30 18:49:00,68.7,66.3,29.82,SE,136,0.0,4.0,92,0.00,,,0.01,Wunderground v.1.15,2013-06-30 22:49:00,
2013-06-30 18:54:00,68.5,66.1,29.82,ESE,123,0.0,3.0,92,0.00,,,0.01,Wunderground v.1.15,2013-06-30 22:54:00,
2013-06-30 18:59:00,68.3,65.9,29.82,SE,136,0.0,3.0,92,0.00,,,0.01,Wunderground v.1.15,2013-06-30 22:59:00,
2013-06-30 19:05:00,68.2,65.8,29.82,West,259,0.0,3.0,92,0.00,,,0.01,Wunderground v.1.15,2013-06-30 23:05:00,
2013-06-30 19:10:00,68.1,65.7,29.83,SE,125,0.0,1.0,92,0.00,,,0.01,Wunderground v.1.15,2013-06-30 23:10:00,
2013-06-30 19:15:00,68.1,66.0,29.83,SE,136,0.0,2.0,93,0.00,,,0.01,Wunderground v.1.15,2013-06-30 23:15:00,
2013-06-30 19:20:00,68.1,66.0,29.83,SE,136,0.0,0.0,93,0.00,,,0.01,Wunderground v.1.15,2013-06-30 23:20:00,
2013-06-30 19:25:00,68.2,66.1,29.83,SSE,155,0.0,4.0,93,0.18,,,0.27,Wunderground v.1.15,2013-06-30 23:25:00,
2013-06-30 19:30:00,68.2,65.8,29.83,SSE,155,0.0,0.0,92,0.07,,,0.27,Wunderground v.1.15,2013-06-30 23:30:00,
2013-06-30 19:35:00,68.1,65.7,29.84,SSE,155,0.0,0.0,92,0.05,,,0.27,Wunderground v.1.15,2013-06-30 23:35:00,
2013-06-30 19:40:00,68.1,65.7,29.84,SSE,154,0.0,0.0,92,0.30,,,0.58,Wunderground v.1.15,2013-06-30 23:40:00,
2013-06-30 19:45:00,68.3,66.2,29.84,SSE,154,0.0,0.0,93,0.08,,,0.58,Wunderground v.1.15,2013-06-30 23:45:00,
2013-06-30 19:50:00,68.3,66.2,29.84,SSE,154,0.0,0.0,93,0.05,,,0.58,Wunderground v.1.15,2013-06-30 23:50:00,
2013-06-30 19:55:00,68.2,66.1,29.84,SSE,154,0.0,0.0,93,0.00,,,0.58,Wunderground v.1.15,2013-06-30 23:55:00,
2013-06-30 20:01:00,68.1,66.3,29.84,SSE,154,0.0,0.0,94,0.00,,,0.58,Wunderground v.1.15,2013-07-01 00:01:00,
2013-06-30 20:06:00,67.9,66.1,29.85,SSE,154,0.0,0.0,94,0.00,,,0.58,Wunderground v.1.15,2013-07-01 00:06:00,
2013-06-30 20:11:00,67.8,66.0,29.85,SSE,154,0.0,0.0,94,0.00,,,0.58,Wunderground v.1.15,2013-07-01 00:11:00,
2013-06-30 20:16:00,67.6,65.8,29.85,SSE,154,0.0,0.0,94,0.00,,,0.58,Wunderground v.1.15,2013-07-01 00:16:00,
2013-06-30 20:17:00,67.6,65.8,29.85,SSE,154,0.0,0.0,94,0.00,,,0.58,Wunderground v.1.15,2013-07-01 00:17:00,
2013-06-30 20:22:00,67.4,65.6,29.85,SSE,154,0.0,0.0,94,0.00,,,0.58,Wunderground v.1.15,2013-07-01 00:22:00,
2013-06-30 20:28:00,67.3,65.8,29.85,SSE,154,0.0,0.0,95,0.00,,,0.58,Wunderground v.1.15,2013-07-01 00:28:00,
2013-06-30 20:33:00,67.2,65.7,29.85,SSE,154,0.0,0.0,95,0.00,,,0.58,Wunderground v.1.15,2013-07-01 00:33:00,
2013-06-30 20:38:00,67.1,65.6,29.86,SSE,154,0.0,1.0,95,0.00,,,0.58,Wunderground v.1.15,2013-07-01 00:38:00,
2013-06-30 20:43:00,67.0,65.5,29.86,SSE,154,0.0,0.0,95,0.00,,,0.58,Wunderground v.1.15,2013-07-01 00:43:00,
2013-06-30 20:48:00,66.8,65.3,29.86,SSE,154,0.0,0.0,95,0.00,,,0.58,Wunderground v.1.15,2013-07-01 00:48:00,
2013-06-30 20:53:00,66.7,65.2,29.86,SSE,154,0.0,0.0,95,0.00,,,0.58,Wunderground v.1.15,2013-07-01 00:53:00,
2013-06-30 20:58:00,66.7,65.5,29.86,SSE,154,0.0,0.0,96,0.00,,,0.58,Wunderground v.1.15,2013-07-01 00:58:00,
2013-06-30 21:03:00,66.6,65.4,29.86,SSE,154,0.0,0.0,96,0.00,,,0.58,Wunderground v.1.15,2013-07-01 01:03:00,
2013-06-30 21:08:00,66.6,65.4,29.87,SSE,154,0.0,0.0,96,0.00,,,0.58,Wunderground v.1.15,2013-07-01 01:08:00,
2013-06-30 21:14:00,66.5,65.3,29.87,SSE,154,0.0,0.0,96,0.00,,,0.58,Wunderground v.1.15,2013-07-01 01:14:00,
2013-06-30 21:19:00,66.5,65.3,29.87,SSE,154,0.0,0.0,96,0.00,,,0.58,Wunderground v.1.15,2013-07-01 01:19:00,
2013-06-30 21:24:00,66.4,65.2,29.88,SSE,154,0.0,0.0,96,0.00,,,0.58,Wunderground v.1.15,2013-07-01 01:24:00,
2013-06-30 21:29:00,66.3,65.1,29.87,SSE,154,0.0,0.0,96,0.00,,,0.58,Wunderground v.1.15,2013-07-01 01:29:00,
2013-06-30 21:34:00,66.1,64.9,29.87,SSE,154,0.0,0.0,96,0.00,,,0.58,Wunderground v.1.15,2013-07-01 01:34:00,
2013-06-30 21:39:00,66.1,64.9,29.87,SSE,154,0.0,0.0,96,0.00,,,0.58,Wunderground v.1.15,2013-07-01 01:39:00,
2013-06-30 21:44:00,66.0,64.8,29.88,SSE,154,0.0,0.0,96,0.00,,,0.58,Wunderground v.1.15,2013-07-01 01:44:00,
2013-06-30 21:50:00,66.0,64.8,29.88,SSE,154,0.0,0.0,96,0.00,,,0.58,Wunderground v.1.15,2013-07-01 01:50:00,
2013-06-30 21:55:00,65.9,65.0,29.88,SSE,154,0.0,0.0,97,0.00,,,0.58,Wunderground v.1.15,2013-07-01 01:55:00,
2013-06-30 22:00:00,66.0,65.1,29.88,SSE,154,0.0,0.0,97,0.00,,,0.58,Wunderground v.1.15,2013-07-01 02:00:00,
2013-06-30 22:05:00,66.0,65.1,29.89,SSE,154,0.0,0.0,97,0.00,,,0.58,Wunderground v.1.15,2013-07-01 02:05:00,
2013-06-30 22:10:00,66.0,65.1,29.89,SSE,154,0.0,0.0,97,0.00,,,0.58,Wunderground v.1.15,2013-07-01 02:10:00,
2013-06-30 22:15:00,66.0,65.1,29.88,SSE,154,0.0,0.0,97,0.00,,,0.58,Wunderground v.1.15,2013-07-01 02:15:00,
2013-06-30 22:20:00,66.0,65.1,29.88,SSE,154,0.0,0.0,97,0.00,,,0.58,Wunderground v.1.15,2013-07-01 02:20:00,
2013-06-30 22:26:00,66.0,65.1,29.88,SSE,154,0.0,0.0,97,0.00,,,0.58,Wunderground v.1.15,2013-07-01 02:26:00,
2013-06-30 22:31:00,65.9,65.0,29.88,SSE,154,0.0,0.0,97,0.00,,,0.58,Wunderground v.1.15,2013-07-01 02:31:00,
2013-06-30 22:36:00,66.0,65.1,29.88,SSE,154,0.0,0.0,97,0.00,,,0.58,Wunderground v.1.15,2013-07-01 02:36:00,
2013-06-30 22:41:00,66.0,65.1,29.88,SSE,154,0.0,0.0,97,0.00,,,0.58,Wunderground v.1.15,2013-07-01 02:41:00,
2013-06-30 22:46:00,66.0,65.1,29.88,SSE,154,0.0,0.0,97,0.00,,,0.58,Wunderground v.1.15,2013-07-01 02:46:00,
2013-06-30 22:51:00,66.0,65.1,29.88,SSE,154,0.0,0.0,97,0.00,,,0.58,Wunderground v.1.15,2013-07-01 02:51:00,
2013-06-30 22:57:00,66.0,65.1,29.88,SSE,154,0.0,0.0,97,0.00,,,0.58,Wunderground v.1.15,2013-07-01 02:57:00,
2013-06-30 23:02:00,66.0,65.1,29.88,SSE,154,0.0,0.0,97,0.00,,,0.58,Wunderground v.1.15,2013-07-01 03:02:00,
2013-06-30 23:07:00,66.0,65.1,29.88,SSE,154,0.0,1.0,97,0.00,,,0.58,Wunderground v.1.15,2013-07-01 03:07:00,
2013-06-30 23:13:00,65.9,65.0,29.88,SSE,154,0.0,0.0,97,0.00,,,0.58,Wunderground v.1.15,2013-07-01 03:13:00,
2013-06-30 23:18:00,65.8,64.9,29.88,SSE,154,0.0,0.0,97,0.00,,,0.58,Wunderground v.1.15,2013-07-01 03:18:00,
2013-06-30 23:23:00,65.7,64.8,29.88,SSE,154,0.0,0.0,97,0.00,,,0.58,Wunderground v.1.15,2013-07-01 03:23:00,
2013-06-30 23:28:00,65.7,64.8,29.88,SSE,154,0.0,0.0,97,0.00,,,0.58,Wunderground v.1.15,2013-07-01 03:28:00,
2013-06-30 23:33:00,65.7,64.8,29.88,SSE,154,0.0,0.0,97,0.00,,,0.58,Wunderground v.1.15,2013-07-01 03:33:00,
2013-06-30 23:38:00,65.7,64.8,29.88,SSE,154,0.0,0.0,97,0.00,,,0.58,Wunderground v.1.15,2013-07-01 03:38:00,
2013-06-30 23:43:00,65.9,65.3,29.89,SSE,154,0.0,0.0,98,0.00,,,0.58,Wunderground v.1.15,2013-07-01 03:43:00,
2013-06-30 23:48:00,66.1,65.5,29.89,North,350,0.0,2.0,98,0.00,,,0.58,Wunderground v.1.15,2013-07-01 03:48:00,
2013-06-30 23:54:00,66.4,65.5,29.89,NNW,331,2.0,2.0,97,0.00,,,0.58,Wunderground v.1.15,2013-07-01 03:54:00,
2013-06-30 23:59:00,66.5,65.6,29.89,WNW,292,0.0,2.0,97,0.00,,,0.58,Wunderground v.1.15,2013-07-01 03:59:00,